aviador You're here:

PAJC Decoded Metar

CHIGNIK BAY in AK, USA
Report Time2018-07-19 04:57:00
UTC Time2018-07-19 05:41:59
Flight Rules mvfr MVFR
Wind100° at 08 kt
W.Decomp.*RWY 02: 3.5 kt HW 7.2 kt RCW
W.Rank100° ranks 7
Current wind is above 100° avg. (7.8)
Visibility9999 m
Phenomena:N/A
Clouds:Few 019 Hf
Overcast 027 Hf
Expected CloudBase > 1,200 ft AGL from Temp-Dew spread
Ceiling2,700 ft
Temp11°C (ISA -4)
Dew Point08°C (82% RH)
AAT7.7°C
QNH1022 hPa
Density Alt-577 ft
Elevation49 ft
Report Wrong Elevation
Raw Report
PAJC 190457Z AUTO 10008KT 10SM FEW019 OVC027 11/08 A3019 RMK AO2
SLP225 T01060083=

Extra information for PAJC:More info

Metar Taf Metar & Taf Last 4 Metars F.Rules Stats Wind Profile Meteogram Temp Stats Airport Information Weather charts Add Link Nearby VenuesMetar ALERT Operation Metar Decoded Social comments

AIRNAV info for PAJC